createdAt,value
2023-01-03T00:01:58.910Z,6.80
2023-01-03T00:04:02.804Z,6.80
2023-01-03T00:06:06.244Z,7.20
2023-01-03T00:08:09.446Z,5.13
2023-01-03T00:10:12.747Z,5.27
2023-01-03T00:12:30.165Z,6.40
2023-01-03T00:14:35.761Z,6.00
2023-01-03T00:16:40.252Z,6.00
2023-01-03T00:18:44.357Z,5.33
2023-01-03T00:20:47.151Z,5.53
2023-01-03T00:22:51.920Z,7.87
2023-01-03T00:24:56.166Z,6.13
2023-01-03T00:26:58.920Z,6.23
2023-01-03T00:29:02.520Z,6.43
2023-01-03T00:31:07.806Z,6.77
2023-01-03T00:33:13.277Z,6.23
2023-01-03T00:35:19.280Z,6.43
2023-01-03T00:37:23.370Z,6.73
2023-01-03T00:39:29.472Z,6.37
2023-01-03T00:41:32.857Z,4.73
2023-01-03T00:43:36.421Z,3.67
2023-01-03T00:45:39.178Z,3.27
2023-01-03T00:47:41.932Z,3.37
2023-01-03T00:49:46.001Z,4.97
2023-01-03T00:51:48.947Z,4.20
2023-01-03T00:53:59.188Z,3.30
2023-01-03T00:56:04.856Z,2.60
2023-01-03T00:58:11.754Z,2.87
2023-01-03T01:00:15.674Z,2.30
2023-01-03T01:02:20.366Z,2.13
2023-01-03T01:04:25.965Z,2.43
2023-01-03T01:06:32.675Z,2.23
2023-01-03T01:08:35.532Z,3.60
2023-01-03T01:11:01.571Z,3.27
2023-01-03T01:13:06.767Z,5.27
2023-01-03T01:15:10.396Z,2.20
2023-01-03T01:17:19.167Z,1.60
2023-01-03T01:19:28.843Z,1.87
2023-01-03T01:21:33.109Z,2.37
2023-01-03T01:23:37.166Z,3.73
2023-01-03T01:25:40.110Z,2.23
2023-01-03T01:27:42.872Z,2.30
2023-01-03T01:29:48.073Z,2.83
2023-01-03T01:31:51.530Z,4.40
2023-01-03T01:33:56.423Z,6.47
2023-01-03T01:35:59.291Z,5.93
2023-01-03T01:38:03.425Z,4.83
2023-01-03T01:40:09.893Z,4.63
2023-01-03T01:42:32.328Z,6.87
2023-01-03T01:44:46.820Z,4.57
2023-01-03T01:46:50.409Z,4.23
2023-01-03T01:48:57.508Z,5.63
2023-01-03T01:51:00.246Z,5.27
2023-01-03T01:53:10.711Z,5.67
2023-01-03T01:55:17.159Z,6.60
2023-01-03T01:57:25.263Z,6.47
2023-01-03T01:59:28.670Z,5.50
2023-01-03T02:01:32.212Z,5.90
2023-01-03T02:03:35.459Z,6.87
2023-01-03T02:05:43.658Z,5.73
2023-01-03T02:07:49.931Z,7.97
2023-01-03T02:09:58.020Z,6.10
2023-01-03T02:12:26.585Z,7.07
2023-01-03T02:14:43.344Z,7.10
2023-01-03T02:16:53.788Z,5.83
2023-01-03T02:19:18.054Z,6.73
2023-01-03T02:21:54.505Z,8.43
2023-01-03T02:24:36.325Z,7.07
2023-01-03T02:26:52.377Z,5.97
2023-01-03T02:29:20.021Z,7.07
2023-01-03T02:31:33.256Z,4.77
2023-01-03T02:33:42.153Z,7.33
2023-01-03T02:35:53.742Z,8.33
2023-01-03T02:38:02.938Z,5.83
2023-01-03T02:40:13.410Z,4.90
2023-01-03T02:42:40.601Z,6.60
2023-01-03T02:44:50.133Z,5.07
2023-01-03T02:47:01.851Z,8.63
2023-01-03T02:49:10.237Z,8.47
2023-01-03T02:51:18.591Z,6.73
2023-01-03T02:53:26.750Z,13.47
2023-01-03T02:55:32.232Z,12.23
2023-01-03T02:57:39.789Z,13.53
2023-01-03T02:59:47.653Z,13.10
2023-01-03T03:01:52.656Z,16.50
2023-01-03T03:03:58.138Z,16.50
2023-01-03T03:06:09.083Z,16.63
2023-01-03T03:08:14.907Z,15.73
2023-01-03T03:10:35.628Z,13.40
2023-01-03T03:13:00.580Z,14.23
2023-01-03T03:15:07.449Z,13.63
2023-01-03T03:17:13.780Z,13.63
2023-01-03T03:19:41.259Z,10.40
2023-01-03T03:22:01.595Z,14.43
2023-01-03T03:24:27.046Z,21.00
2023-01-03T03:26:34.257Z,23.67
2023-01-03T03:28:39.401Z,23.33
2023-01-03T03:30:45.486Z,26.23
2023-01-03T03:32:51.734Z,27.43
2023-01-03T03:34:58.484Z,26.80
2023-01-03T03:37:06.374Z,24.80
2023-01-03T03:39:31.989Z,25.63
2023-01-03T03:41:57.663Z,22.93
2023-01-03T03:44:24.808Z,20.67
2023-01-03T03:46:34.027Z,22.07
2023-01-03T03:48:57.269Z,20.63
2023-01-03T03:51:08.455Z,22.83
2023-01-03T03:53:13.528Z,18.20
2023-01-03T03:55:20.231Z,16.50
2023-01-03T03:57:28.665Z,19.80
2023-01-03T03:59:32.649Z,14.43
2023-01-03T04:01:39.184Z,11.27
2023-01-03T04:03:43.875Z,15.80
2023-01-03T04:05:54.137Z,14.00
2023-01-03T04:07:58.419Z,12.50
2023-01-03T04:10:01.638Z,13.20
2023-01-03T04:12:04.802Z,9.43
2023-01-03T04:14:08.364Z,10.97
2023-01-03T04:16:12.455Z,10.87
2023-01-03T04:18:19.072Z,9.37
2023-01-03T04:20:21.903Z,10.80
2023-01-03T04:22:26.849Z,8.60
2023-01-03T04:24:30.920Z,9.17
2023-01-03T04:26:34.349Z,8.33
2023-01-03T04:28:37.304Z,9.03
2023-01-03T04:30:40.181Z,7.67
2023-01-03T04:32:43.204Z,7.07
2023-01-03T04:34:46.285Z,6.50
2023-01-03T04:36:51.444Z,6.10
2023-01-03T04:38:54.186Z,5.20
2023-01-03T04:41:04.791Z,6.60
2023-01-03T04:43:26.587Z,5.80
2023-01-03T04:45:34.936Z,8.40
2023-01-03T04:47:37.960Z,5.60
2023-01-03T04:49:40.695Z,7.37
2023-01-03T04:51:43.435Z,7.57
2023-01-03T04:53:46.169Z,5.47
2023-01-03T04:55:50.031Z,6.10
2023-01-03T04:57:54.277Z,6.07
2023-01-03T04:59:56.993Z,5.60
2023-01-03T05:01:59.906Z,6.07
2023-01-03T05:04:03.285Z,4.10
2023-01-03T05:06:08.165Z,6.97
2023-01-03T05:08:13.348Z,4.47
2023-01-03T05:10:23.137Z,4.90
2023-01-03T05:12:39.237Z,4.30
2023-01-03T05:14:46.049Z,5.97
2023-01-03T05:16:49.053Z,5.50
2023-01-03T05:18:53.253Z,5.00
2023-01-03T05:21:14.650Z,4.67
2023-01-03T05:23:36.593Z,4.10
2023-01-03T05:25:51.702Z,4.50
2023-01-03T05:27:54.660Z,4.27
2023-01-03T05:29:58.850Z,7.03
2023-01-03T05:32:01.777Z,4.40
2023-01-03T05:34:10.251Z,4.40
2023-01-03T05:36:16.466Z,6.07
2023-01-03T05:38:19.882Z,4.47
2023-01-03T05:40:22.696Z,4.30
2023-01-03T05:42:25.650Z,4.63
2023-01-03T05:44:28.848Z,4.00
2023-01-03T05:46:33.481Z,6.13
2023-01-03T05:48:36.770Z,4.93
2023-01-03T05:50:39.843Z,6.03
2023-01-03T05:52:42.601Z,4.30
2023-01-03T05:54:45.411Z,3.83
2023-01-03T05:56:48.975Z,5.57
2023-01-03T05:58:52.038Z,4.40
2023-01-03T06:00:54.782Z,5.20
2023-01-03T06:02:59.077Z,4.77
2023-01-03T06:05:01.854Z,4.47
2023-01-03T06:07:06.638Z,4.67
2023-01-03T06:09:13.093Z,3.73
2023-01-03T06:11:17.576Z,3.80
2023-01-03T06:13:23.702Z,4.53
2023-01-03T06:15:26.582Z,5.43
2023-01-03T06:17:46.849Z,5.57
2023-01-03T06:19:51.045Z,4.00
2023-01-03T06:21:53.724Z,5.63
2023-01-03T06:23:56.449Z,4.60
2023-01-03T06:25:59.246Z,4.27
2023-01-03T06:28:02.137Z,4.90
2023-01-03T06:30:06.058Z,5.03
2023-01-03T06:32:09.913Z,3.93
2023-01-03T06:34:22.516Z,6.20
2023-01-03T06:36:26.945Z,4.53
2023-01-03T06:38:30.324Z,5.80
2023-01-03T06:40:39.416Z,4.97
2023-01-03T06:42:45.187Z,5.60
2023-01-03T06:45:08.463Z,5.30
2023-01-03T06:47:30.960Z,5.37
2023-01-03T06:50:07.263Z,5.07
2023-01-03T06:52:37.735Z,6.77
2023-01-03T06:54:40.503Z,5.37
2023-01-03T06:56:43.235Z,4.90
2023-01-03T06:58:46.011Z,5.07
2023-01-03T07:00:48.768Z,5.00
2023-01-03T07:02:51.600Z,4.50
2023-01-03T07:04:54.464Z,4.80
2023-01-03T07:06:57.242Z,4.80
2023-01-03T07:09:01.406Z,4.63
2023-01-03T07:11:05.530Z,5.33
2023-01-03T07:13:25.930Z,5.13
2023-01-03T07:15:29.054Z,4.47
2023-01-03T07:17:32.185Z,5.00
2023-01-03T07:19:34.977Z,5.90
2023-01-03T07:21:37.825Z,5.73
2023-01-03T07:23:40.638Z,4.17
2023-01-03T07:25:47.696Z,5.27
2023-01-03T07:28:01.895Z,4.70
2023-01-03T07:30:09.562Z,4.60
2023-01-03T07:32:12.277Z,5.43
2023-01-03T07:34:15.091Z,6.10
2023-01-03T07:36:18.261Z,4.97
2023-01-03T07:38:21.157Z,5.37
2023-01-03T07:40:24.089Z,4.67
2023-01-03T07:42:54.264Z,8.63
2023-01-03T07:44:57.050Z,5.30
2023-01-03T07:46:59.724Z,6.23
2023-01-03T07:49:07.870Z,6.07
2023-01-03T07:51:15.971Z,7.70
2023-01-03T07:53:18.738Z,7.13
2023-01-03T07:55:21.476Z,6.47
2023-01-03T07:57:24.292Z,5.23
2023-01-03T07:59:28.369Z,6.47
2023-01-03T08:01:33.049Z,10.77
2023-01-03T08:03:36.632Z,6.80
2023-01-03T08:05:39.588Z,6.97
2023-01-03T08:07:42.336Z,7.33
2023-01-03T08:10:02.687Z,7.70
2023-01-03T08:12:23.665Z,7.93
2023-01-03T08:14:28.013Z,8.33
2023-01-03T08:16:30.929Z,10.17
2023-01-03T08:18:33.682Z,8.90
2023-01-03T08:20:36.391Z,9.47
2023-01-03T08:22:39.169Z,8.73
2023-01-03T08:24:41.904Z,7.90
2023-01-03T08:26:44.771Z,9.57
2023-01-03T08:28:47.660Z,8.20
2023-01-03T08:30:51.904Z,10.07
2023-01-03T08:32:56.248Z,9.13
2023-01-03T08:34:59.951Z,7.97
2023-01-03T08:37:07.568Z,9.67
2023-01-03T08:39:13.395Z,7.67
2023-01-03T08:41:20.836Z,9.30
2023-01-03T08:43:23.984Z,9.50
2023-01-03T08:45:27.976Z,9.73
2023-01-03T08:47:32.093Z,10.57
2023-01-03T08:49:35.272Z,9.80
2023-01-03T08:51:38.310Z,10.60
2023-01-03T08:53:41.122Z,12.63
2023-01-03T08:55:44.189Z,10.67
2023-01-03T08:57:47.204Z,10.57
2023-01-03T08:59:49.960Z,10.80
2023-01-03T09:01:52.879Z,11.27
2023-01-03T09:03:57.096Z,12.90
2023-01-03T09:06:01.783Z,12.00
2023-01-03T09:08:04.609Z,12.30
2023-01-03T09:10:08.151Z,14.67
2023-01-03T09:12:10.958Z,15.53
2023-01-03T09:14:13.827Z,26.03
2023-01-03T09:16:17.301Z,30.23
2023-01-03T09:18:20.212Z,35.87
2023-01-03T09:20:24.750Z,54.83
2023-01-03T09:22:27.805Z,47.10
2023-01-03T09:24:30.661Z,109.40
2023-01-03T09:26:33.597Z,134.83
2023-01-03T09:28:36.809Z,189.97
2023-01-03T09:30:43.159Z,176.67
2023-01-03T09:32:46.043Z,81.57
2023-01-03T09:34:48.907Z,171.87
2023-01-03T09:36:53.313Z,122.20
2023-01-03T09:38:56.278Z,82.63
2023-01-03T09:41:01.032Z,84.50
2023-01-03T09:43:13.346Z,65.33
2023-01-03T09:45:23.007Z,68.97
2023-01-03T09:47:27.826Z,85.57
2023-01-03T09:49:30.781Z,93.90
2023-01-03T09:51:56.277Z,107.83
2023-01-03T09:54:18.185Z,124.07
2023-01-03T09:56:38.537Z,175.77
2023-01-03T09:59:14.597Z,113.03
2023-01-03T10:01:55.590Z,158.97
2023-01-03T10:04:08.117Z,142.43
2023-01-03T10:06:16.199Z,109.33
2023-01-03T10:08:39.639Z,139.03
2023-01-03T10:10:52.475Z,76.43
2023-01-03T10:13:05.848Z,94.60
2023-01-03T10:15:23.133Z,80.30
2023-01-03T10:17:35.619Z,107.67
2023-01-03T10:20:10.587Z,126.07
2023-01-03T10:22:16.351Z,71.00
2023-01-03T10:24:23.906Z,72.10
2023-01-03T10:26:34.202Z,54.33
2023-01-03T10:28:41.077Z,58.17
2023-01-03T10:31:07.710Z,84.23
2023-01-03T10:33:30.086Z,45.80
2023-01-03T10:35:35.462Z,66.07
2023-01-03T10:37:41.206Z,52.43
2023-01-03T10:39:44.249Z,41.57
2023-01-03T10:41:52.247Z,42.30
2023-01-03T10:43:59.757Z,38.70
2023-01-03T10:46:05.498Z,34.57
2023-01-03T10:48:15.562Z,31.60
2023-01-03T10:50:22.894Z,30.10
2023-01-03T10:52:30.239Z,31.80
2023-01-03T10:54:50.273Z,26.97
2023-01-03T10:56:54.975Z,25.40
2023-01-03T10:59:17.897Z,27.47
2023-01-03T11:01:24.659Z,26.03
2023-01-03T11:03:29.136Z,29.47
2023-01-03T11:05:32.743Z,25.20
2023-01-03T11:07:43.283Z,23.33
2023-01-03T11:09:52.060Z,27.33
2023-01-03T11:12:04.563Z,24.73
2023-01-03T11:14:24.618Z,22.67
2023-01-03T11:16:33.209Z,26.77
2023-01-03T11:18:36.130Z,27.17
2023-01-03T11:20:44.866Z,28.47
2023-01-03T11:22:56.240Z,23.03
2023-01-03T11:25:16.856Z,30.20
2023-01-03T11:27:30.611Z,27.93
2023-01-03T11:30:03.468Z,23.53
2023-01-03T11:32:24.810Z,24.47
2023-01-03T11:35:20.660Z,20.40
2023-01-03T11:37:15.739Z,17.07
2023-01-03T11:39:32.036Z,15.63
2023-01-03T11:41:56.217Z,14.03
2023-01-03T11:44:22.853Z,14.60
2023-01-03T11:46:52.053Z,14.20
2023-01-03T11:49:21.747Z,15.07
2023-01-03T11:51:33.794Z,13.60
2023-01-03T11:53:38.318Z,13.40
2023-01-03T11:56:07.503Z,11.40
2023-01-03T11:58:31.483Z,9.43
2023-01-03T12:00:41.979Z,8.60
2023-01-03T12:03:12.546Z,9.63
2023-01-03T12:05:46.195Z,8.10
2023-01-03T12:07:58.199Z,7.03
2023-01-03T12:10:10.845Z,5.37
2023-01-03T12:12:31.063Z,5.70
2023-01-03T12:14:40.082Z,4.63
2023-01-03T12:16:49.096Z,6.97
2023-01-03T12:18:59.688Z,5.03
2023-01-03T12:21:08.624Z,3.97
2023-01-03T12:23:17.525Z,4.10
2023-01-03T12:25:26.249Z,6.50
2023-01-03T12:27:35.960Z,6.13
2023-01-03T12:29:50.308Z,5.43
2023-01-03T12:32:00.992Z,4.07
2023-01-03T12:34:13.266Z,8.57
2023-01-03T12:36:28.678Z,4.87
2023-01-03T12:38:36.344Z,8.20
2023-01-03T12:40:47.681Z,7.23
2023-01-03T12:42:58.976Z,6.40
2023-01-03T12:45:20.195Z,4.47
2023-01-03T12:47:31.924Z,7.53
2023-01-03T12:49:39.476Z,7.73
2023-01-03T12:51:42.289Z,8.03
2023-01-03T12:53:49.213Z,6.20
2023-01-03T12:56:28.028Z,5.03
2023-01-03T12:58:43.012Z,5.83
2023-01-03T13:00:56.996Z,5.00
2023-01-03T13:03:07.102Z,4.60
2023-01-03T13:05:17.803Z,5.40
2023-01-03T13:07:26.767Z,4.70
2023-01-03T13:09:35.848Z,5.10
2023-01-03T13:11:44.560Z,7.33
2023-01-03T13:13:54.340Z,5.00
2023-01-03T13:15:57.326Z,5.70
2023-01-03T13:18:33.443Z,5.40
2023-01-03T13:20:37.048Z,4.53
2023-01-03T13:23:00.945Z,4.80
2023-01-03T13:25:30.931Z,8.30
2023-01-03T13:27:38.151Z,7.10
2023-01-03T13:29:45.943Z,6.00
2023-01-03T13:32:04.561Z,8.27
2023-01-03T13:34:19.520Z,7.53
2023-01-03T13:36:23.123Z,7.60
2023-01-03T13:38:29.948Z,9.30
2023-01-03T13:41:08.044Z,7.50
2023-01-03T13:43:12.997Z,6.43
2023-01-03T13:45:48.990Z,6.27
2023-01-03T13:47:54.790Z,7.10
2023-01-03T13:49:59.073Z,7.87
2023-01-03T13:52:05.386Z,10.03
2023-01-03T13:54:29.420Z,6.77
2023-01-03T13:56:53.173Z,7.27
2023-01-03T13:59:02.148Z,9.60
2023-01-03T14:01:18.387Z,10.47
2023-01-03T14:03:52.542Z,12.10
2023-01-03T14:06:29.048Z,10.53
2023-01-03T14:08:44.208Z,9.60
2023-01-03T14:11:22.318Z,11.87
2023-01-03T14:13:37.806Z,9.77
2023-01-03T14:15:41.978Z,12.50
2023-01-03T14:17:48.810Z,10.23
2023-01-03T14:19:54.331Z,13.60
2023-01-03T14:22:21.131Z,9.83
2023-01-03T14:24:27.182Z,12.40
2023-01-03T14:26:32.466Z,10.83
2023-01-03T14:28:35.634Z,10.67
2023-01-03T14:30:40.743Z,12.77
2023-01-03T14:32:44.931Z,9.37
2023-01-03T14:34:47.693Z,9.10
2023-01-03T14:36:50.647Z,11.37
2023-01-03T14:38:55.566Z,9.63
2023-01-03T14:40:59.190Z,9.73
2023-01-03T14:43:05.533Z,10.63
2023-01-03T14:45:17.055Z,9.53
2023-01-03T14:47:20.003Z,8.90
2023-01-03T14:49:27.467Z,10.33
2023-01-03T14:51:32.588Z,8.73
2023-01-03T14:53:36.188Z,9.63
2023-01-03T14:55:40.292Z,12.13
2023-01-03T14:57:45.622Z,7.93
2023-01-03T14:59:49.733Z,9.27
2023-01-03T15:01:52.967Z,12.73
2023-01-03T15:03:57.154Z,9.50
2023-01-03T15:06:01.890Z,11.37
2023-01-03T15:08:21.315Z,13.43
2023-01-03T15:10:32.862Z,9.63
2023-01-03T15:12:40.212Z,10.40
2023-01-03T15:14:43.198Z,9.70
2023-01-03T15:16:46.184Z,11.33
2023-01-03T15:18:49.327Z,12.07
2023-01-03T15:20:55.017Z,9.30
2023-01-03T15:22:59.687Z,11.13
2023-01-03T15:25:05.866Z,11.40
2023-01-03T15:27:33.956Z,9.47
2023-01-03T15:29:45.372Z,12.77
2023-01-03T15:31:51.505Z,13.20
2023-01-03T15:34:01.954Z,12.37
2023-01-03T15:36:10.824Z,11.47
2023-01-03T15:38:21.380Z,10.23
2023-01-03T15:40:24.736Z,10.70
2023-01-03T15:42:54.622Z,14.43
2023-01-03T15:45:01.071Z,13.03
2023-01-03T15:47:08.175Z,13.00
2023-01-03T15:49:13.534Z,10.60
2023-01-03T15:51:16.386Z,10.50
2023-01-03T15:53:26.486Z,11.53
2023-01-03T15:55:29.569Z,12.10
2023-01-03T15:57:33.712Z,9.63
2023-01-03T15:59:43.081Z,12.70
2023-01-03T16:01:46.534Z,10.53
2023-01-03T16:03:50.741Z,12.20
2023-01-03T16:05:53.698Z,13.77
2023-01-03T16:07:56.560Z,10.97
2023-01-03T16:10:00.927Z,12.60
2023-01-03T16:12:04.914Z,15.07
2023-01-03T16:14:12.872Z,12.73
2023-01-03T16:16:20.800Z,15.40
2023-01-03T16:18:30.617Z,16.43
2023-01-03T16:20:33.471Z,15.00
2023-01-03T16:22:41.323Z,16.07
2023-01-03T16:24:48.866Z,14.63
2023-01-03T16:26:53.333Z,15.83
2023-01-03T16:28:56.254Z,14.73
2023-01-03T16:31:02.149Z,18.27
2023-01-03T16:33:05.112Z,13.47
2023-01-03T16:35:16.065Z,17.80
2023-01-03T16:37:19.036Z,17.17
2023-01-03T16:39:25.950Z,16.50
2023-01-03T16:41:28.849Z,14.73
2023-01-03T16:43:34.949Z,17.10
2023-01-03T16:45:46.981Z,15.60
2023-01-03T16:47:50.396Z,21.27
2023-01-03T16:49:56.219Z,19.17
2023-01-03T16:51:59.139Z,20.37
2023-01-03T16:54:03.893Z,17.43
2023-01-03T16:56:09.480Z,17.87
2023-01-03T16:58:16.936Z,19.27
2023-01-03T17:00:23.570Z,19.97
2023-01-03T17:02:26.485Z,18.20
2023-01-03T17:04:29.781Z,16.17
2023-01-03T17:06:38.371Z,14.73
2023-01-03T17:08:43.643Z,16.60
2023-01-03T17:10:48.713Z,14.60
2023-01-03T17:12:51.518Z,18.17
2023-01-03T17:14:54.517Z,15.07
2023-01-03T17:16:58.679Z,14.27
2023-01-03T17:19:01.749Z,16.87
2023-01-03T17:21:12.701Z,14.07
2023-01-03T17:23:16.053Z,14.13
2023-01-03T17:25:18.895Z,18.60
2023-01-03T17:27:31.448Z,15.33
2023-01-03T17:29:35.656Z,16.27
2023-01-03T17:31:38.469Z,15.60
2023-01-03T17:33:42.621Z,18.50
2023-01-03T17:35:47.872Z,15.27
2023-01-03T17:40:19.607Z,18.30
2023-01-03T17:42:23.859Z,17.07
2023-01-03T17:44:26.655Z,15.50
2023-01-03T17:46:47.053Z,15.93
2023-01-03T17:49:09.096Z,16.47
2023-01-03T17:51:12.456Z,16.87
2023-01-03T17:53:18.276Z,16.57
2023-01-03T17:55:24.384Z,19.47
2023-01-03T17:57:27.194Z,17.70
2023-01-03T17:59:30.031Z,19.63
2023-01-03T18:01:34.005Z,17.33
2023-01-03T18:03:38.335Z,18.73
2023-01-03T18:05:43.407Z,22.10
2023-01-03T18:07:46.509Z,18.43
2023-01-03T18:09:50.774Z,21.50
2023-01-03T18:11:54.071Z,22.13
2023-01-03T18:13:56.790Z,23.10
2023-01-03T18:16:00.063Z,20.33
2023-01-03T18:18:02.919Z,22.10
2023-01-03T18:20:06.479Z,21.20
2023-01-03T18:22:13.565Z,20.80
2023-01-03T18:24:19.350Z,19.73
2023-01-03T18:26:22.222Z,19.97
2023-01-03T18:28:28.012Z,24.87
2023-01-03T18:30:31.095Z,21.70
2023-01-03T18:32:35.902Z,22.63
2023-01-03T18:34:38.715Z,25.10
2023-01-03T18:36:43.807Z,23.77
2023-01-03T18:38:47.891Z,24.00
2023-01-03T18:40:51.070Z,25.40
2023-01-03T18:43:09.643Z,26.73
2023-01-03T18:45:13.901Z,25.17
2023-01-03T18:47:17.047Z,23.83
2023-01-03T18:49:20.164Z,23.67
2023-01-03T18:51:25.619Z,23.30
2023-01-03T18:53:31.921Z,26.53
2023-01-03T18:55:36.952Z,27.20
2023-01-03T18:57:39.932Z,24.13
2023-01-03T18:59:42.766Z,23.93
2023-01-03T19:01:45.665Z,23.37
2023-01-03T19:03:49.466Z,29.67
2023-01-03T19:05:53.966Z,21.17
2023-01-03T19:07:57.035Z,19.63
2023-01-03T19:10:00.543Z,22.80
2023-01-03T19:12:04.843Z,24.67
2023-01-03T19:14:09.040Z,23.87
2023-01-03T19:16:19.707Z,24.27
2023-01-03T19:18:23.085Z,26.77
2023-01-03T19:20:27.211Z,22.60
2023-01-03T19:22:32.939Z,22.37
2023-01-03T19:24:39.382Z,21.30
2023-01-03T19:26:45.350Z,26.23
2023-01-03T19:28:49.774Z,26.37
2023-01-03T19:30:53.380Z,23.67
2023-01-03T19:32:57.974Z,26.10
2023-01-03T19:35:00.729Z,25.50
2023-01-03T19:37:03.724Z,22.97
2023-01-03T19:39:06.586Z,23.07
2023-01-03T19:41:10.867Z,22.17
2023-01-03T19:43:21.543Z,21.97
2023-01-03T19:45:28.867Z,18.60
2023-01-03T19:47:31.622Z,21.50
2023-01-03T19:49:34.428Z,21.67
2023-01-03T19:51:37.189Z,22.87
2023-01-03T19:53:42.250Z,19.33
2023-01-03T19:55:47.517Z,20.47
2023-01-03T19:57:51.423Z,20.03
2023-01-03T19:59:57.510Z,20.90
2023-01-03T20:04:25.457Z,20.40
2023-01-03T20:06:28.308Z,21.00
2023-01-03T20:08:31.199Z,20.43
2023-01-03T20:10:36.314Z,21.67
2023-01-03T20:12:39.079Z,22.63
2023-01-03T20:14:42.769Z,19.30
2023-01-03T20:16:45.656Z,23.33
2023-01-03T20:18:49.807Z,21.37
2023-01-03T20:20:53.969Z,21.07
2023-01-03T20:23:06.285Z,23.50
2023-01-03T20:25:25.126Z,22.07
2023-01-03T20:27:27.934Z,23.07
2023-01-03T20:29:30.717Z,20.73
2023-01-03T20:31:33.763Z,20.83
2023-01-03T20:33:36.785Z,21.50
2023-01-03T20:38:04.711Z,18.00
2023-01-03T20:40:14.870Z,21.33
2023-01-03T20:42:22.793Z,22.93
2023-01-03T20:44:25.977Z,30.63
2023-01-03T20:46:30.886Z,27.63
2023-01-03T20:48:33.700Z,26.70
2023-01-03T20:50:36.494Z,22.80
2023-01-03T20:52:40.549Z,23.13
2023-01-03T20:54:43.355Z,25.30
2023-01-03T20:56:46.628Z,24.90
2023-01-03T20:58:49.468Z,25.80
2023-01-03T21:00:56.740Z,25.47
2023-01-03T21:03:04.798Z,24.20
2023-01-03T21:05:08.090Z,23.57
2023-01-03T21:07:26.385Z,20.43
2023-01-03T21:09:29.560Z,22.03
2023-01-03T21:11:35.761Z,20.17
2023-01-03T21:13:38.561Z,20.53
2023-01-03T21:15:41.406Z,24.40
2023-01-03T21:17:50.373Z,20.73
2023-01-03T21:19:53.783Z,23.13
2023-01-03T21:21:58.345Z,17.73
2023-01-03T21:24:01.694Z,20.17
2023-01-03T21:26:06.122Z,19.27
2023-01-03T21:28:11.115Z,23.10
2023-01-03T21:30:14.409Z,17.33
2023-01-03T21:32:17.289Z,21.87
2023-01-03T21:34:21.935Z,22.23
2023-01-03T21:36:27.219Z,19.17
2023-01-03T21:38:30.010Z,23.80
2023-01-03T21:40:32.770Z,22.73
2023-01-03T21:42:57.060Z,26.17
2023-01-03T21:45:04.720Z,26.57
2023-01-03T21:47:07.665Z,26.47
2023-01-03T21:49:12.382Z,27.93
2023-01-03T21:51:24.573Z,25.17
2023-01-03T21:53:30.161Z,27.43
2023-01-03T21:55:32.932Z,23.70
2023-01-03T21:57:37.134Z,27.07
2023-01-03T21:59:39.833Z,25.53
2023-01-03T22:02:01.657Z,27.53
2023-01-03T22:04:19.488Z,24.07
2023-01-03T22:06:22.283Z,25.90
2023-01-03T22:08:25.053Z,22.47
2023-01-03T22:10:27.137Z,25.57
2023-01-03T22:12:29.892Z,26.27
2023-01-03T22:14:34.016Z,24.73
2023-01-03T22:16:36.859Z,22.70
2023-01-03T22:18:39.678Z,28.73
2023-01-03T22:20:42.479Z,25.13
2023-01-03T22:22:45.988Z,29.73
2023-01-03T22:24:48.705Z,30.20
2023-01-03T22:26:51.435Z,31.50
2023-01-03T22:28:54.189Z,32.63
2023-01-03T22:30:58.298Z,29.13
2023-01-03T22:33:01.024Z,33.47
2023-01-03T22:35:03.840Z,37.33
2023-01-03T22:37:06.740Z,31.37
2023-01-03T22:39:09.564Z,29.90
2023-01-03T22:41:14.605Z,29.43
2023-01-03T22:43:17.328Z,30.40
2023-01-03T22:45:20.192Z,31.80
2023-01-03T22:47:24.358Z,30.60
2023-01-03T22:49:27.486Z,36.50
2023-01-03T22:51:30.285Z,34.97
2023-01-03T22:53:34.950Z,36.97
2023-01-03T22:55:41.830Z,34.67
2023-01-03T22:57:46.860Z,29.20
2023-01-03T22:59:49.837Z,30.83
2023-01-03T23:01:52.711Z,28.10
2023-01-03T23:04:01.259Z,33.07
2023-01-03T23:06:07.585Z,32.73
2023-01-03T23:08:10.352Z,31.30
2023-01-03T23:10:13.658Z,31.53
2023-01-03T23:12:33.901Z,30.50
2023-01-03T23:14:38.490Z,25.10
2023-01-03T23:16:41.314Z,26.03
2023-01-03T23:18:43.130Z,27.73
2023-01-03T23:20:49.034Z,25.07
2023-01-03T23:22:59.109Z,30.37
2023-01-03T23:25:02.519Z,26.57
2023-01-03T23:27:05.445Z,28.00
2023-01-03T23:29:09.789Z,23.60
2023-01-03T23:31:12.883Z,24.77
2023-01-03T23:33:16.176Z,21.03
2023-01-03T23:35:19.062Z,20.40
2023-01-03T23:37:23.130Z,21.27
2023-01-03T23:39:26.175Z,21.40
2023-01-03T23:41:29.085Z,17.87
2023-01-03T23:43:31.884Z,19.17
2023-01-03T23:45:34.670Z,21.00
2023-01-03T23:47:37.514Z,18.50
2023-01-03T23:49:40.380Z,16.20
2023-01-03T23:51:43.706Z,20.67
2023-01-03T23:53:47.866Z,18.33
2023-01-03T23:55:51.690Z,16.37
2023-01-03T23:57:54.404Z,15.63
2023-01-03T23:59:57.265Z,21.13
